Time;durP1;ratioP1;P1;durP2;ratioP2;P2;SDS_P1;SDS_P2;PMS_P1;PMS_P2;Temp;Humidity;BMP_temperature;BMP_pressure;BME280_temperature;BME280_humidity;BME280_pressure;Samples;Min_cycle;Max_cycle;Signal;HPM_P1;HPM_P2
2022/05/08 00:00:27;;;;;;;0.00;0.00;;;;;;;;;;1737162;28;20203;-75
2022/05/08 00:01:19;;;;;;;0.00;0.00;;;;;;;;;;1739259;28;20221;-75
2022/05/08 00:02:10;;;;;;;0.00;0.00;;;;;;;;;;1738179;28;20561;-75
2022/05/08 00:03:02;;;;;;;0.00;0.00;;;;;;;;;;1738019;28;20542;-75
2022/05/08 00:03:54;;;;;;;0.00;0.00;;;;;;;;;;1738188;28;20210;-75
2022/05/08 00:04:49;;;;;;;0.00;0.00;;;;;;;;;;1738962;28;20199;-75
2022/05/08 00:05:41;;;;;;;0.00;0.00;;;;;;;;;;1737365;28;20333;-75
2022/05/08 00:06:33;;;;;;;0.00;0.00;;;;;;;;;;1738467;28;20254;-75
2022/05/08 00:07:26;;;;;;;0.00;0.00;;;;;;;;;;1739054;28;20218;-76
2022/05/08 00:08:18;;;;;;;0.00;0.00;;;;;;;;;;1738189;28;20230;-75
2022/05/08 00:09:09;;;;;;;0.00;0.00;;;;;;;;;;1734660;28;20629;-75
2022/05/08 00:10:02;;;;;;;0.00;0.00;;;;;;;;;;1737633;28;20209;-75
2022/05/08 00:10:53;;;;;;;0.00;0.00;;;;;;;;;;1737797;28;20235;-76
2022/05/08 00:11:45;;;;;;;0.00;0.00;;;;;;;;;;1738512;28;20209;-75
2022/05/08 00:12:37;;;;;;;0.00;0.00;;;;;;;;;;1738980;28;20202;-76
2022/05/08 00:13:31;;;;;;;0.00;0.00;;;;;;;;;;1738780;28;20624;-75
2022/05/08 00:14:22;;;;;;;0.00;0.00;;;;;;;;;;1738577;28;20637;-75
2022/05/08 00:15:14;;;;;;;0.00;0.00;;;;;;;;;;1737148;28;20203;-76
2022/05/08 00:16:06;;;;;;;0.00;0.00;;;;;;;;;;1737939;28;20242;-76
2022/05/08 00:16:58;;;;;;;0.00;0.00;;;;;;;;;;1738521;28;20235;-76
2022/05/08 00:17:49;;;;;;;0.00;0.00;;;;;;;;;;1738814;28;20517;-76
2022/05/08 00:18:41;;;;;;;0.00;0.00;;;;;;;;;;1738465;28;20596;-76
2022/05/08 00:19:33;;;;;;;0.00;0.00;;;;;;;;;;1739068;28;20206;-75
2022/05/08 00:20:28;;;;;;;0.00;0.00;;;;;;;;;;1735961;28;20195;-76
2022/05/08 00:21:19;;;;;;;0.00;0.00;;;;;;;;;;1738836;28;20460;-76
2022/05/08 00:22:11;;;;;;;0.00;0.00;;;;;;;;;;1737852;28;20203;-75
2022/05/08 00:23:04;;;;;;;0.00;0.00;;;;;;;;;;1739025;28;20809;-76
2022/05/08 00:23:56;;;;;;;0.00;0.00;;;;;;;;;;1738357;28;20227;-76
2022/05/08 00:24:47;;;;;;;0.00;0.00;;;;;;;;;;1738950;28;20214;-75
2022/05/08 00:25:39;;;;;;;0.00;0.00;;;;;;;;;;1737280;28;20242;-76
2022/05/08 00:26:31;;;;;;;0.00;0.00;;;;;;;;;;1738408;28;20203;-76
2022/05/08 00:27:23;;;;;;;0.00;0.00;;;;;;;;;;1738944;28;20202;-75
2022/05/08 00:28:14;;;;;;;0.00;0.00;;;;;;;;;;1737349;28;20207;-75
2022/05/08 00:29:07;;;;;;;0.00;0.00;;;;;;;;;;1738512;28;20307;-75
2022/05/08 00:29:58;;;;;;;0.00;0.00;;;;;;;;;;1737923;28;20198;-75
2022/05/08 00:30:50;;;;;;;0.00;0.00;;;;;;;;;;1737742;28;20249;-75
2022/05/08 00:31:42;;;;;;;0.00;0.00;;;;;;;;;;1738341;28;20340;-75
2022/05/08 00:32:34;;;;;;;0.00;0.00;;;;;;;;;;1739131;28;20206;-75
2022/05/08 00:33:25;;;;;;;0.00;0.00;;;;;;;;;;1738310;28;20526;-75
2022/05/08 00:34:17;;;;;;;0.00;0.00;;;;;;;;;;1738277;28;20211;-75
2022/05/08 00:35:10;;;;;;;0.00;0.00;;;;;;;;;;1737921;28;20211;-75
2022/05/08 00:36:02;;;;;;;0.00;0.00;;;;;;;;;;1737570;28;20245;-75
2022/05/08 00:36:53;;;;;;;0.00;0.00;;;;;;;;;;1737961;28;20294;-75
2022/05/08 00:37:45;;;;;;;0.00;0.00;;;;;;;;;;1738500;28;20203;-75
2022/05/08 00:38:38;;;;;;;0.00;0.00;;;;;;;;;;1738438;28;20218;-75
2022/05/08 00:39:30;;;;;;;0.00;0.00;;;;;;;;;;1738741;28;20615;-75
2022/05/08 00:40:21;;;;;;;0.00;0.00;;;;;;;;;;1735920;28;20415;-75
2022/05/08 00:41:13;;;;;;;0.00;0.00;;;;;;;;;;1738746;28;20211;-75
2022/05/08 00:42:05;;;;;;;0.00;0.00;;;;;;;;;;1738627;28;20203;-75
2022/05/08 00:42:58;;;;;;;0.00;0.00;;;;;;;;;;1738764;28;20199;-75
2022/05/08 00:43:49;;;;;;;0.00;0.00;;;;;;;;;;1738192;28;20568;-75
2022/05/08 00:44:41;;;;;;;0.00;0.00;;;;;;;;;;1739331;28;20413;-75
2022/05/08 00:45:33;;;;;;;0.00;0.00;;;;;;;;;;1736991;28;20238;-75
2022/05/08 00:46:25;;;;;;;0.00;0.00;;;;;;;;;;1739013;28;20679;-75
2022/05/08 00:47:16;;;;;;;0.00;0.00;;;;;;;;;;1738052;28;20692;-75
2022/05/08 00:48:09;;;;;;;0.00;0.00;;;;;;;;;;1738227;28;20290;-75
2022/05/08 00:49:00;;;;;;;0.00;0.00;;;;;;;;;;1738782;28;20652;-75
2022/05/08 00:49:53;;;;;;;0.00;0.00;;;;;;;;;;1737950;28;20199;-75
2022/05/08 00:50:44;;;;;;;0.00;0.00;;;;;;;;;;1731521;28;20312;-74
2022/05/08 00:51:37;;;;;;;0.00;0.00;;;;;;;;;;1732892;28;20207;-74
2022/05/08 00:52:29;;;;;;;0.00;0.00;;;;;;;;;;1738571;28;20563;-75
2022/05/08 00:53:22;;;;;;;0.10;0.10;;;;;;;;;;1737630;28;20210;-75
2022/05/08 00:54:14;;;;;;;0.00;0.00;;;;;;;;;;1738832;28;20674;-75
2022/05/08 00:55:07;;;;;;;0.00;0.00;;;;;;;;;;1740036;28;20263;-75
2022/05/08 00:55:59;;;;;;;0.00;0.00;;;;;;;;;;1738719;28;20242;-75
2022/05/08 00:56:51;;;;;;;0.00;0.00;;;;;;;;;;1739821;28;20660;-75
2022/05/08 00:57:42;;;;;;;0.00;0.00;;;;;;;;;;1739600;28;20203;-75
2022/05/08 00:58:35;;;;;;;0.00;0.00;;;;;;;;;;1739716;28;20260;-75
2022/05/08 00:59:26;;;;;;;0.00;0.00;;;;;;;;;;1738960;28;20206;-75
2022/05/08 01:00:19;;;;;;;0.00;0.00;;;;;;;;;;1737540;28;20301;-75
2022/05/08 01:01:10;;;;;;;0.00;0.00;;;;;;;;;;1740796;28;20636;-75
2022/05/08 01:02:03;;;;;;;0.00;0.00;;;;;;;;;;1739706;28;20221;-75
2022/05/08 01:02:57;;;;;;;0.00;0.00;;;;;;;;;;1740342;28;20207;-75
2022/05/08 01:03:49;;;;;;;0.10;0.10;;;;;;;;;;1739628;28;20700;-74
2022/05/08 01:04:40;;;;;;;0.00;0.00;;;;;;;;;;1739829;28;20199;-74
2022/05/08 01:05:32;;;;;;;0.00;0.00;;;;;;;;;;1737224;28;20234;-74
2022/05/08 01:06:24;;;;;;;0.00;0.00;;;;;;;;;;1740037;28;20211;-74
2022/05/08 01:07:16;;;;;;;0.00;0.00;;;;;;;;;;1739921;28;20207;-75
2022/05/08 01:08:08;;;;;;;0.00;0.00;;;;;;;;;;1739738;28;20211;-74
2022/05/08 01:09:00;;;;;;;0.00;0.00;;;;;;;;;;1740078;28;20479;-74
2022/05/08 01:09:55;;;;;;;0.00;0.00;;;;;;;;;;1739610;28;20198;-74
2022/05/08 01:10:48;;;;;;;0.00;0.00;;;;;;;;;;1739114;28;20238;-75
2022/05/08 01:11:39;;;;;;;0.00;0.00;;;;;;;;;;1739962;28;20220;-75
2022/05/08 01:12:34;;;;;;;0.00;0.00;;;;;;;;;;1739965;28;20199;-75
2022/05/08 01:13:25;;;;;;;0.00;0.00;;;;;;;;;;1739699;28;20654;-75
2022/05/08 01:14:18;;;;;;;0.00;0.00;;;;;;;;;;1740278;28;20206;-75
2022/05/08 01:15:13;;;;;;;0.00;0.00;;;;;;;;;;1739601;28;20214;-75
2022/05/08 01:16:08;;;;;;;0.00;0.00;;;;;;;;;;1738765;28;20535;-75
2022/05/08 01:16:59;;;;;;;0.00;0.00;;;;;;;;;;1739352;28;21158;-75
2022/05/08 01:17:53;;;;;;;0.00;0.00;;;;;;;;;;1739004;28;20195;-75
2022/05/08 01:18:44;;;;;;;0.00;0.00;;;;;;;;;;1739065;28;20206;-75
2022/05/08 01:19:36;;;;;;;0.00;0.00;;;;;;;;;;1739877;28;20199;-75
2022/05/08 01:20:29;;;;;;;0.05;0.05;;;;;;;;;;1737799;28;20203;-75
2022/05/08 01:21:24;;;;;;;0.00;0.00;;;;;;;;;;1739882;28;20805;-75
2022/05/08 01:22:16;;;;;;;0.00;0.00;;;;;;;;;;1739098;28;20211;-75
2022/05/08 01:23:09;;;;;;;0.00;0.00;;;;;;;;;;1739775;28;20225;-75
2022/05/08 01:24:00;;;;;;;0.00;0.00;;;;;;;;;;1738969;28;20580;-75
2022/05/08 01:24:53;;;;;;;0.00;0.00;;;;;;;;;;1738941;28;20195;-75
2022/05/08 01:25:48;;;;;;;0.00;0.00;;;;;;;;;;1738531;28;20495;-75
2022/05/08 01:26:40;;;;;;;0.00;0.00;;;;;;;;;;1739673;28;20544;-75
2022/05/08 01:27:31;;;;;;;0.00;0.00;;;;;;;;;;1739063;28;20210;-75
2022/05/08 01:28:25;;;;;;;0.00;0.00;;;;;;;;;;1739344;28;20668;-75
2022/05/08 01:29:17;;;;;;;0.00;0.00;;;;;;;;;;1739624;28;20206;-75
2022/05/08 01:30:08;;;;;;;0.00;0.00;;;;;;;;;;1738457;28;20535;-75
2022/05/08 01:31:00;;;;;;;0.00;0.00;;;;;;;;;;1738065;28;20230;-75
2022/05/08 01:31:51;;;;;;;0.00;0.00;;;;;;;;;;1739251;28;20198;-75
2022/05/08 01:32:44;;;;;;;0.00;0.00;;;;;;;;;;1739834;28;20269;-75
2022/05/08 01:33:35;;;;;;;0.00;0.00;;;;;;;;;;1738806;28;20257;-75
2022/05/08 01:34:27;;;;;;;0.00;0.00;;;;;;;;;;1739753;28;20195;-75
2022/05/08 01:35:19;;;;;;;0.00;0.00;;;;;;;;;;1737460;28;20623;-75
2022/05/08 01:36:11;;;;;;;0.00;0.00;;;;;;;;;;1740020;28;20290;-75
2022/05/08 01:37:02;;;;;;;0.00;0.00;;;;;;;;;;1738640;28;20203;-75
2022/05/08 01:37:56;;;;;;;0.00;0.00;;;;;;;;;;1739303;28;20217;-75
2022/05/08 01:38:47;;;;;;;0.00;0.00;;;;;;;;;;1739119;28;20207;-75
2022/05/08 01:39:39;;;;;;;0.00;0.00;;;;;;;;;;1739609;28;20262;-75
2022/05/08 01:40:31;;;;;;;0.00;0.00;;;;;;;;;;1737726;28;20249;-75
2022/05/08 01:41:23;;;;;;;0.00;0.00;;;;;;;;;;1739983;28;20270;-75
2022/05/08 01:42:14;;;;;;;0.00;0.00;;;;;;;;;;1738926;28;20241;-75
2022/05/08 01:43:07;;;;;;;0.00;0.00;;;;;;;;;;1739010;28;20552;-75
2022/05/08 01:43:58;;;;;;;0.00;0.00;;;;;;;;;;1739095;28;20207;-75
2022/05/08 01:44:52;;;;;;;0.00;0.00;;;;;;;;;;1733677;28;20211;-75
2022/05/08 01:45:43;;;;;;;0.00;0.00;;;;;;;;;;1737572;28;20289;-75
2022/05/08 01:46:35;;;;;;;0.00;0.00;;;;;;;;;;1739425;28;20203;-75
2022/05/08 01:48:37;;;;;;;0.00;0.00;;;;;;;;;;1739251;28;20197;-75
2022/05/08 01:49:32;;;;;;;0.00;0.00;;;;;;;;;;1738906;28;20649;-75
2022/05/08 01:50:25;;;;;;;0.00;0.00;;;;;;;;;;1734233;28;20825;-75
2022/05/08 01:51:16;;;;;;;0.00;0.00;;;;;;;;;;1739886;28;20207;-75
2022/05/08 01:52:09;;;;;;;0.00;0.00;;;;;;;;;;1735653;28;20203;-75
2022/05/08 01:53:02;;;;;;;0.00;0.00;;;;;;;;;;1739934;28;20482;-75
2022/05/08 01:53:54;;;;;;;0.00;0.00;;;;;;;;;;1739025;28;20298;-75
2022/05/08 01:54:45;;;;;;;0.00;0.00;;;;;;;;;;1739850;28;20199;-75
2022/05/08 01:55:37;;;;;;;0.00;0.00;;;;;;;;;;1737477;28;20230;-75
2022/05/08 01:56:28;;;;;;;0.00;0.00;;;;;;;;;;1739071;28;20203;-75
2022/05/08 01:57:20;;;;;;;0.00;0.00;;;;;;;;;;1739491;28;20206;-75
2022/05/08 01:58:12;;;;;;;0.00;0.00;;;;;;;;;;1739035;28;20608;-75
2022/05/08 01:59:04;;;;;;;0.00;0.00;;;;;;;;;;1739621;28;20651;-75
2022/05/08 01:59:55;;;;;;;0.00;0.00;;;;;;;;;;1738959;28;20525;-75
2022/05/08 02:00:48;;;;;;;0.00;0.00;;;;;;;;;;1738351;28;20668;-75
2022/05/08 02:01:39;;;;;;;0.00;0.00;;;;;;;;;;1738022;28;20222;-75
2022/05/08 02:02:32;;;;;;;0.00;0.00;;;;;;;;;;1739046;28;20318;-75
2022/05/08 02:03:25;;;;;;;0.00;0.00;;;;;;;;;;1739290;28;20255;-75
2022/05/08 02:04:16;;;;;;;0.00;0.00;;;;;;;;;;1739600;28;20226;-75
2022/05/08 02:05:08;;;;;;;0.00;0.00;;;;;;;;;;1738382;28;20206;-75
2022/05/08 02:06:00;;;;;;;0.00;0.00;;;;;;;;;;1738429;28;20238;-75
2022/05/08 02:06:52;;;;;;;0.00;0.00;;;;;;;;;;1739022;28;20210;-75
2022/05/08 02:07:44;;;;;;;0.00;0.00;;;;;;;;;;1738721;28;20199;-76
2022/05/08 02:08:37;;;;;;;0.00;0.00;;;;;;;;;;1737937;28;20282;-75
2022/05/08 02:09:29;;;;;;;0.00;0.00;;;;;;;;;;1739458;28;20202;-75
2022/05/08 02:10:21;;;;;;;0.00;0.00;;;;;;;;;;1736882;28;20313;-76
2022/05/08 02:11:12;;;;;;;0.00;0.00;;;;;;;;;;1739803;28;20203;-75
2022/05/08 02:12:05;;;;;;;0.00;0.00;;;;;;;;;;1739081;28;20195;-75
2022/05/08 02:12:56;;;;;;;0.00;0.00;;;;;;;;;;1739215;28;20253;-75
2022/05/08 02:13:48;;;;;;;0.00;0.00;;;;;;;;;;1738753;28;20533;-75
2022/05/08 02:14:41;;;;;;;0.00;0.00;;;;;;;;;;1739115;28;20224;-75
2022/05/08 02:15:34;;;;;;;0.00;0.00;;;;;;;;;;1737552;28;20231;-75
2022/05/08 02:16:25;;;;;;;0.00;0.00;;;;;;;;;;1739736;28;20795;-75
2022/05/08 02:17:18;;;;;;;0.00;0.00;;;;;;;;;;1738172;28;20484;-75
2022/05/08 02:18:10;;;;;;;0.00;0.00;;;;;;;;;;1738971;28;20203;-75
2022/05/08 02:19:02;;;;;;;0.00;0.00;;;;;;;;;;1738871;28;20591;-75
2022/05/08 02:19:54;;;;;;;0.00;0.00;;;;;;;;;;1737499;28;20581;-75
2022/05/08 02:20:46;;;;;;;0.00;0.00;;;;;;;;;;1737090;28;20226;-75
2022/05/08 02:21:38;;;;;;;0.00;0.00;;;;;;;;;;1739045;28;20295;-75
2022/05/08 02:22:29;;;;;;;0.00;0.00;;;;;;;;;;1739485;28;20207;-75
2022/05/08 02:23:21;;;;;;;0.00;0.00;;;;;;;;;;1738788;28;20321;-75
2022/05/08 02:24:14;;;;;;;0.00;0.00;;;;;;;;;;1738936;28;20303;-75
2022/05/08 02:25:07;;;;;;;0.00;0.00;;;;;;;;;;1738815;28;20248;-75
2022/05/08 02:25:58;;;;;;;0.00;0.00;;;;;;;;;;1738093;28;20234;-75
2022/05/08 02:26:50;;;;;;;0.00;0.00;;;;;;;;;;1738136;28;20203;-75
2022/05/08 02:27:44;;;;;;;0.00;0.00;;;;;;;;;;1738769;28;20199;-75
2022/05/08 02:28:36;;;;;;;0.00;0.00;;;;;;;;;;1738998;28;20289;-75
2022/05/08 02:29:27;;;;;;;0.00;0.00;;;;;;;;;;1739130;28;20656;-75
2022/05/08 02:30:20;;;;;;;0.00;0.00;;;;;;;;;;1736758;28;20321;-75
2022/05/08 02:31:12;;;;;;;0.00;0.00;;;;;;;;;;1740024;28;20199;-75
2022/05/08 02:32:03;;;;;;;0.00;0.00;;;;;;;;;;1738719;28;20195;-75
2022/05/08 02:32:57;;;;;;;0.00;0.00;;;;;;;;;;1738617;28;20674;-75
2022/05/08 02:33:49;;;;;;;0.00;0.00;;;;;;;;;;1738151;28;20696;-75
2022/05/08 02:34:41;;;;;;;0.00;0.00;;;;;;;;;;1739482;28;20203;-75
2022/05/08 02:35:33;;;;;;;0.00;0.00;;;;;;;;;;1737199;28;20336;-75
2022/05/08 02:36:25;;;;;;;0.00;0.00;;;;;;;;;;1739431;28;20214;-75
2022/05/08 02:37:17;;;;;;;0.00;0.00;;;;;;;;;;1739083;28;20218;-75
2022/05/08 02:38:09;;;;;;;0.00;0.00;;;;;;;;;;1738955;28;20222;-75
2022/05/08 02:39:00;;;;;;;0.00;0.00;;;;;;;;;;1739074;28;20210;-75
2022/05/08 02:39:54;;;;;;;0.00;0.00;;;;;;;;;;1738256;28;20683;-75
2022/05/08 02:40:46;;;;;;;0.00;0.00;;;;;;;;;;1737222;28;20239;-75
2022/05/08 02:41:37;;;;;;;0.00;0.00;;;;;;;;;;1738706;28;20217;-75
2022/05/08 02:42:29;;;;;;;0.00;0.00;;;;;;;;;;1739203;28;20199;-75
2022/05/08 02:43:21;;;;;;;0.00;0.00;;;;;;;;;;1739010;28;20599;-75
2022/05/08 02:44:13;;;;;;;0.00;0.00;;;;;;;;;;1739301;28;20206;-75
2022/05/08 02:45:05;;;;;;;0.00;0.00;;;;;;;;;;1738793;28;20636;-75
2022/05/08 02:45:59;;;;;;;0.00;0.00;;;;;;;;;;1737189;28;20676;-75
2022/05/08 02:46:51;;;;;;;0.00;0.00;;;;;;;;;;1738519;28;20598;-75
2022/05/08 02:47:43;;;;;;;0.00;0.00;;;;;;;;;;1738973;28;20210;-75
2022/05/08 02:48:34;;;;;;;0.00;0.00;;;;;;;;;;1738662;28;20544;-75
2022/05/08 02:49:27;;;;;;;0.00;0.00;;;;;;;;;;1738284;28;20206;-75
2022/05/08 02:50:19;;;;;;;0.00;0.00;;;;;;;;;;1734238;28;20207;-75
2022/05/08 02:51:12;;;;;;;0.00;0.00;;;;;;;;;;1739817;28;20697;-75
2022/05/08 02:52:03;;;;;;;0.00;0.00;;;;;;;;;;1737771;28;20202;-76
2022/05/08 02:52:55;;;;;;;0.00;0.00;;;;;;;;;;1739030;28;20198;-75
2022/05/08 02:53:47;;;;;;;0.00;0.00;;;;;;;;;;1738691;28;20199;-75
2022/05/08 02:54:39;;;;;;;0.00;0.00;;;;;;;;;;1739376;28;20203;-75
2022/05/08 02:59:01;;;;;;;0.00;0.00;;;;;;;;;;1738928;28;20209;-75
2022/05/08 02:59:53;;;;;;;0.00;0.00;;;;;;;;;;1738736;28;20207;-75
2022/05/08 03:00:45;;;;;;;0.00;0.00;;;;;;;;;;1737781;28;20238;-75
2022/05/08 03:01:37;;;;;;;0.00;0.00;;;;;;;;;;1738797;28;20302;-75
2022/05/08 03:02:28;;;;;;;0.00;0.00;;;;;;;;;;1739520;28;20219;-75
2022/05/08 03:03:20;;;;;;;0.00;0.00;;;;;;;;;;1738592;28;20602;-75
2022/05/08 03:04:12;;;;;;;0.00;0.00;;;;;;;;;;1735286;28;20687;-75
2022/05/08 03:05:04;;;;;;;0.00;0.00;;;;;;;;;;1737698;28;20802;-75
2022/05/08 03:05:55;;;;;;;0.00;0.00;;;;;;;;;;1737970;28;20234;-76
2022/05/08 03:06:48;;;;;;;0.00;0.00;;;;;;;;;;1738743;28;20206;-75
2022/05/08 03:07:39;;;;;;;0.00;0.00;;;;;;;;;;1738832;28;20218;-75
2022/05/08 03:08:31;;;;;;;0.00;0.00;;;;;;;;;;1738703;28;21532;-75
2022/05/08 03:09:22;;;;;;;0.00;0.00;;;;;;;;;;1738760;28;20211;-75
2022/05/08 03:10:14;;;;;;;0.00;0.00;;;;;;;;;;1737115;28;20314;-75
2022/05/08 03:12:17;;;;;;;0.00;0.00;;;;;;;;;;1738694;28;20609;-75
2022/05/08 03:13:09;;;;;;;0.00;0.00;;;;;;;;;;1738941;28;20549;-75
2022/05/08 03:14:01;;;;;;;0.00;0.00;;;;;;;;;;1738992;28;20198;-75
2022/05/08 03:14:52;;;;;;;0.00;0.00;;;;;;;;;;1738420;28;20207;-75
2022/05/08 03:15:44;;;;;;;0.00;0.00;;;;;;;;;;1737347;28;20561;-75
2022/05/08 03:16:37;;;;;;;0.00;0.00;;;;;;;;;;1737742;28;20207;-75
2022/05/08 03:17:28;;;;;;;0.00;0.00;;;;;;;;;;1738267;28;20215;-75
2022/05/08 03:18:20;;;;;;;0.00;0.00;;;;;;;;;;1738572;28;20259;-75
2022/05/08 03:19:13;;;;;;;0.00;0.00;;;;;;;;;;1735775;28;20203;-75
2022/05/08 03:20:05;;;;;;;0.00;0.00;;;;;;;;;;1737827;28;20582;-75
2022/05/08 03:20:57;;;;;;;0.00;0.00;;;;;;;;;;1737523;28;20249;-75
2022/05/08 03:21:51;;;;;;;0.00;0.00;;;;;;;;;;1738304;28;20329;-76
2022/05/08 03:22:42;;;;;;;0.00;0.00;;;;;;;;;;1738871;28;20218;-75
2022/05/08 03:23:35;;;;;;;0.00;0.00;;;;;;;;;;1737792;28;20623;-75
2022/05/08 03:24:28;;;;;;;0.00;0.00;;;;;;;;;;1739039;28;20260;-76
2022/05/08 03:25:20;;;;;;;0.00;0.00;;;;;;;;;;1736942;28;20289;-75
2022/05/08 03:26:14;;;;;;;0.00;0.00;;;;;;;;;;1738873;28;20507;-76
2022/05/08 03:27:06;;;;;;;0.00;0.00;;;;;;;;;;1738705;28;20214;-75
2022/05/08 03:27:58;;;;;;;0.00;0.00;;;;;;;;;;1738719;28;20506;-76
2022/05/08 03:28:50;;;;;;;0.00;0.00;;;;;;;;;;1738410;28;20222;-75
2022/05/08 03:29:42;;;;;;;0.00;0.00;;;;;;;;;;1738298;28;20206;-75
2022/05/08 03:30:36;;;;;;;0.00;0.00;;;;;;;;;;1736736;28;20231;-76
2022/05/08 03:31:27;;;;;;;0.00;0.00;;;;;;;;;;1739108;28;20521;-75
2022/05/08 03:32:19;;;;;;;0.00;0.00;;;;;;;;;;1738525;28;20429;-75
2022/05/08 03:33:11;;;;;;;0.00;0.00;;;;;;;;;;1738763;28;20211;-75
2022/05/08 03:34:03;;;;;;;0.00;0.00;;;;;;;;;;1738794;28;20286;-75
2022/05/08 03:34:54;;;;;;;0.00;0.00;;;;;;;;;;1738393;28;20694;-75
2022/05/08 03:35:46;;;;;;;0.00;0.00;;;;;;;;;;1736756;28;20537;-75
2022/05/08 03:36:38;;;;;;;0.00;0.00;;;;;;;;;;1738461;28;20779;-75
2022/05/08 03:37:29;;;;;;;0.00;0.00;;;;;;;;;;1738442;28;20210;-75
2022/05/08 03:38:21;;;;;;;0.00;0.00;;;;;;;;;;1738560;28;20502;-75
2022/05/08 03:39:13;;;;;;;0.00;0.00;;;;;;;;;;1739256;28;20202;-75
2022/05/08 03:40:05;;;;;;;0.00;0.00;;;;;;;;;;1738259;28;20324;-75
2022/05/08 03:40:57;;;;;;;0.00;0.00;;;;;;;;;;1737826;28;20234;-75
2022/05/08 03:41:52;;;;;;;0.00;0.00;;;;;;;;;;1737947;28;20619;-75
2022/05/08 03:42:43;;;;;;;0.00;0.00;;;;;;;;;;1738451;28;20206;-75
2022/05/08 03:43:35;;;;;;;0.00;0.00;;;;;;;;;;1738412;28;20547;-75
2022/05/08 03:44:27;;;;;;;0.00;0.00;;;;;;;;;;1738970;28;20537;-75
2022/05/08 03:45:19;;;;;;;0.00;0.00;;;;;;;;;;1736776;28;20219;-75
2022/05/08 03:46:10;;;;;;;0.00;0.00;;;;;;;;;;1739489;28;20203;-75
2022/05/08 03:47:02;;;;;;;0.00;0.00;;;;;;;;;;1738334;28;20214;-75
2022/05/08 03:47:54;;;;;;;0.00;0.00;;;;;;;;;;1738294;28;20198;-76
2022/05/08 03:48:46;;;;;;;0.00;0.00;;;;;;;;;;1737508;28;20502;-75
2022/05/08 03:49:37;;;;;;;0.00;0.00;;;;;;;;;;1736461;28;20206;-76
2022/05/08 03:50:30;;;;;;;0.00;0.00;;;;;;;;;;1735698;28;20207;-76
2022/05/08 03:51:22;;;;;;;0.00;0.00;;;;;;;;;;1739063;28;20249;-76
2022/05/08 03:52:14;;;;;;;0.08;0.08;;;;;;;;;;1738687;28;20489;-75
2022/05/08 03:53:06;;;;;;;0.00;0.00;;;;;;;;;;1739067;28;20199;-75
2022/05/08 03:53:58;;;;;;;0.00;0.00;;;;;;;;;;1737870;28;20199;-75
2022/05/08 03:54:50;;;;;;;0.00;0.00;;;;;;;;;;1738087;28;20605;-75
2022/05/08 03:55:41;;;;;;;0.00;0.00;;;;;;;;;;1737415;28;20700;-75
2022/05/08 03:56:33;;;;;;;0.00;0.00;;;;;;;;;;1738867;28;20209;-75
2022/05/08 03:57:26;;;;;;;0.00;0.00;;;;;;;;;;1737898;28;20210;-75
2022/05/08 03:58:18;;;;;;;0.00;0.00;;;;;;;;;;1738465;28;20733;-75
2022/05/08 03:59:09;;;;;;;0.00;0.00;;;;;;;;;;1738662;28;20207;-76
2022/05/08 04:00:01;;;;;;;0.00;0.00;;;;;;;;;;1737956;28;20680;-75
2022/05/08 04:00:52;;;;;;;0.00;0.00;;;;;;;;;;1733629;28;20550;-75
2022/05/08 04:01:45;;;;;;;0.00;0.00;;;;;;;;;;1738002;28;20207;-75
2022/05/08 04:02:36;;;;;;;0.00;0.00;;;;;;;;;;1739113;28;20207;-75
2022/05/08 04:03:28;;;;;;;0.00;0.00;;;;;;;;;;1738479;28;20206;-75
2022/05/08 04:04:19;;;;;;;0.00;0.00;;;;;;;;;;1738965;28;20249;-75
2022/05/08 04:05:12;;;;;;;0.00;0.00;;;;;;;;;;1737286;28;20259;-76
2022/05/08 04:06:03;;;;;;;0.00;0.00;;;;;;;;;;1738342;28;20313;-75
2022/05/08 04:06:55;;;;;;;0.00;0.00;;;;;;;;;;1738143;28;20262;-75
2022/05/08 04:08:11;;;;;;;0.00;0.00;;;;;;;;;;1738415;28;20207;-75
2022/05/08 04:09:04;;;;;;;0.00;0.00;;;;;;;;;;1738088;28;20202;-75
2022/05/08 04:09:55;;;;;;;0.00;0.00;;;;;;;;;;1738395;28;20649;-75
2022/05/08 04:10:47;;;;;;;0.00;0.00;;;;;;;;;;1737516;28;20602;-75
2022/05/08 04:13:26;;;;;;;0.00;0.00;;;;;;;;;;1702006;28;20259;-75
2022/05/08 04:28:35;;;;;;;0.00;0.00;;;;;;;;;;1608806;30;20970;-74
2022/05/08 04:29:27;;;;;;;0.00;0.00;;;;;;;;;;1619533;30;20762;-74
2022/05/08 04:30:18;;;;;;;0.00;0.00;;;;;;;;;;1624463;30;20250;-75
2022/05/08 04:31:10;;;;;;;0.00;0.00;;;;;;;;;;1637169;30;20202;-75
2022/05/08 04:32:02;;;;;;;0.00;0.00;;;;;;;;;;1646825;30;20280;-75
2022/05/08 04:32:54;;;;;;;0.00;0.00;;;;;;;;;;1647823;30;20256;-75
2022/05/08 04:33:45;;;;;;;0.00;0.00;;;;;;;;;;1647304;30;20224;-75
2022/05/08 04:34:37;;;;;;;0.00;0.00;;;;;;;;;;1647472;30;20216;-75
2022/05/08 04:35:29;;;;;;;0.00;0.00;;;;;;;;;;1646229;29;20690;-75
2022/05/08 04:36:21;;;;;;;0.00;0.00;;;;;;;;;;1648232;30;20196;-75
2022/05/08 04:37:12;;;;;;;0.00;0.00;;;;;;;;;;1647196;30;20229;-75
2022/05/08 04:38:04;;;;;;;0.00;0.00;;;;;;;;;;1646951;29;20208;-75
2022/05/08 04:38:56;;;;;;;0.00;0.00;;;;;;;;;;1646933;30;20307;-75
2022/05/08 04:39:48;;;;;;;0.00;0.00;;;;;;;;;;1647530;30;20208;-75
2022/05/08 04:40:41;;;;;;;0.00;0.00;;;;;;;;;;1645991;29;20576;-75
2022/05/08 04:41:32;;;;;;;0.00;0.00;;;;;;;;;;1647835;30;20571;-75
2022/05/08 04:42:26;;;;;;;0.00;0.00;;;;;;;;;;1647684;30;20218;-75
2022/05/08 04:43:17;;;;;;;0.00;0.00;;;;;;;;;;1647404;30;20579;-75
2022/05/08 04:44:10;;;;;;;0.00;0.00;;;;;;;;;;1647313;30;20212;-75
2022/05/08 04:45:02;;;;;;;0.00;0.00;;;;;;;;;;1646759;30;20216;-75
2022/05/08 04:45:54;;;;;;;0.00;0.00;;;;;;;;;;1646410;29;20248;-75
2022/05/08 04:46:45;;;;;;;0.00;0.00;;;;;;;;;;1647198;30;20227;-76
2022/05/08 04:47:37;;;;;;;0.00;0.00;;;;;;;;;;1649278;29;20308;-75
2022/05/08 04:48:28;;;;;;;0.00;0.00;;;;;;;;;;1665909;29;20218;-75
2022/05/08 04:49:21;;;;;;;0.00;0.00;;;;;;;;;;1666352;29;20533;-75
2022/05/08 04:50:12;;;;;;;0.00;0.00;;;;;;;;;;1664413;29;20242;-75
2022/05/08 04:51:04;;;;;;;0.00;0.00;;;;;;;;;;1665251;29;20788;-75
2022/05/08 04:51:56;;;;;;;0.10;0.10;;;;;;;;;;1666265;29;20215;-74
2022/05/08 04:52:48;;;;;;;0.00;0.00;;;;;;;;;;1666570;29;20216;-75
2022/05/08 04:53:40;;;;;;;0.00;0.00;;;;;;;;;;1676529;29;20303;-74
2022/05/08 04:54:31;;;;;;;0.00;0.00;;;;;;;;;;1685922;29;20212;-75
2022/05/08 04:55:25;;;;;;;0.00;0.00;;;;;;;;;;1683547;29;20391;-75
2022/05/08 04:56:18;;;;;;;0.00;0.00;;;;;;;;;;1685414;29;20319;-75
2022/05/08 04:57:09;;;;;;;0.00;0.00;;;;;;;;;;1684291;29;20664;-75
2022/05/08 04:58:01;;;;;;;0.00;0.00;;;;;;;;;;1688341;28;20216;-75
2022/05/08 04:58:52;;;;;;;0.00;0.00;;;;;;;;;;1711503;28;20220;-75
2022/05/08 04:59:46;;;;;;;0.00;0.00;;;;;;;;;;1713646;28;20595;-75
2022/05/08 05:00:38;;;;;;;0.00;0.00;;;;;;;;;;1737830;28;20231;-74
2022/05/08 05:01:30;;;;;;;0.00;0.00;;;;;;;;;;1739898;28;20249;-74
2022/05/08 05:02:21;;;;;;;0.00;0.00;;;;;;;;;;1739132;28;20203;-75
2022/05/08 05:03:13;;;;;;;0.00;0.00;;;;;;;;;;1739022;28;20692;-75
2022/05/08 05:04:05;;;;;;;0.00;0.00;;;;;;;;;;1739850;28;20199;-75
2022/05/08 05:04:57;;;;;;;0.00;0.00;;;;;;;;;;1739569;28;20210;-75
2022/05/08 05:05:48;;;;;;;0.00;0.00;;;;;;;;;;1738396;28;20238;-75
2022/05/08 05:06:42;;;;;;;0.00;0.00;;;;;;;;;;1739634;28;20203;-75
2022/05/08 05:07:33;;;;;;;0.00;0.00;;;;;;;;;;1736425;28;20211;-75
2022/05/08 05:08:25;;;;;;;0.00;0.00;;;;;;;;;;1739178;28;20269;-75
2022/05/08 05:09:16;;;;;;;0.00;0.00;;;;;;;;;;1739283;28;20213;-75
2022/05/08 05:10:09;;;;;;;0.00;0.00;;;;;;;;;;1738821;28;20504;-75
2022/05/08 05:11:00;;;;;;;0.00;0.00;;;;;;;;;;1738897;28;20227;-75
2022/05/08 05:11:53;;;;;;;0.00;0.00;;;;;;;;;;1739371;28;20296;-75
2022/05/08 05:12:44;;;;;;;0.00;0.00;;;;;;;;;;1740191;28;20692;-76
2022/05/08 05:13:36;;;;;;;0.10;0.10;;;;;;;;;;1739143;28;20214;-76
2022/05/08 05:14:31;;;;;;;0.00;0.00;;;;;;;;;;1739980;28;20664;-76
2022/05/08 05:15:25;;;;;;;0.00;0.00;;;;;;;;;;1736780;28;20377;-76
2022/05/08 05:16:16;;;;;;;0.00;0.00;;;;;;;;;;1739917;28;20273;-76
2022/05/08 05:17:09;;;;;;;0.00;0.00;;;;;;;;;;1739572;28;20614;-76
2022/05/08 05:18:01;;;;;;;0.00;0.00;;;;;;;;;;1739904;28;20566;-76
2022/05/08 05:18:54;;;;;;;0.00;0.00;;;;;;;;;;1739232;28;20585;-75
2022/05/08 05:19:45;;;;;;;0.00;0.00;;;;;;;;;;1739716;28;20583;-75
2022/05/08 05:20:37;;;;;;;0.00;0.00;;;;;;;;;;1737740;28;20853;-75
2022/05/08 05:21:28;;;;;;;0.00;0.00;;;;;;;;;;1734040;28;20218;-76
2022/05/08 05:22:22;;;;;;;0.00;0.00;;;;;;;;;;1738977;28;20202;-75
2022/05/08 05:23:13;;;;;;;0.00;0.00;;;;;;;;;;1739314;28;20515;-75
2022/05/08 05:24:06;;;;;;;0.00;0.00;;;;;;;;;;1739698;28;20223;-75
2022/05/08 05:24:58;;;;;;;0.03;0.03;;;;;;;;;;1738730;28;20199;-75
2022/05/08 05:25:50;;;;;;;0.00;0.00;;;;;;;;;;1738479;28;20242;-75
2022/05/08 05:26:41;;;;;;;0.00;0.00;;;;;;;;;;1739191;28;20210;-75
2022/05/08 05:27:33;;;;;;;0.00;0.00;;;;;;;;;;1739133;28;20249;-75
2022/05/08 05:28:24;;;;;;;0.00;0.00;;;;;;;;;;1738970;28;20218;-75
2022/05/08 05:29:17;;;;;;;0.00;0.00;;;;;;;;;;1739732;28;20206;-75
2022/05/08 05:30:09;;;;;;;0.00;0.00;;;;;;;;;;1738585;28;20211;-75
2022/05/08 05:31:02;;;;;;;0.00;0.00;;;;;;;;;;1738167;28;20332;-75
2022/05/08 05:31:53;;;;;;;0.00;0.00;;;;;;;;;;1739227;28;20214;-75
2022/05/08 05:32:45;;;;;;;0.00;0.00;;;;;;;;;;1739720;28;20524;-76
2022/05/08 05:33:37;;;;;;;0.00;0.00;;;;;;;;;;1739044;28;20218;-75
2022/05/08 05:34:29;;;;;;;0.00;0.00;;;;;;;;;;1739305;28;20203;-75